sensor_id;sensor_type;location;lat;lon;timestamp;pressure;altitude;pressure_sealevel;temperature
34125;BMP280;20110;53.120;5.786;2023-09-07T00:00:23;102165.97;;;24.92
34125;BMP280;20110;53.120;5.786;2023-09-07T00:02:49;102085.41;;;24.21
34125;BMP280;20110;53.120;5.786;2023-09-07T00:05:14;102157.13;;;24.70
34125;BMP280;20110;53.120;5.786;2023-09-07T00:07:40;102137.84;;;24.45
34125;BMP280;20110;53.120;5.786;2023-09-07T00:10:07;102159.66;;;24.56
34125;BMP280;20110;53.120;5.786;2023-09-07T00:12:33;102114.69;;;24.22
34125;BMP280;20110;53.120;5.786;2023-09-07T00:14:59;102122.06;;;24.31
34125;BMP280;20110;53.120;5.786;2023-09-07T00:17:25;102128.63;;;24.28
34125;BMP280;20110;53.120;5.786;2023-09-07T00:19:51;102113.84;;;24.20
34125;BMP280;20110;53.120;5.786;2023-09-07T00:22:18;102157.81;;;24.49
34125;BMP280;20110;53.120;5.786;2023-09-07T00:24:44;102144.75;;;24.36
34125;BMP280;20110;53.120;5.786;2023-09-07T00:27:10;102118.47;;;24.08
34125;BMP280;20110;53.120;5.786;2023-09-07T00:29:38;102115.94;;;24.00
34125;BMP280;20110;53.120;5.786;2023-09-07T00:32:05;102140.59;;;24.14
34125;BMP280;20110;53.120;5.786;2023-09-07T00:34:31;102157.66;;;24.26
34125;BMP280;20110;53.120;5.786;2023-09-07T00:36:57;102156.81;;;24.23
34125;BMP280;20110;53.120;5.786;2023-09-07T00:39:23;102120.94;;;23.94
34125;BMP280;20110;53.120;5.786;2023-09-07T00:41:49;102139.59;;;24.09
34125;BMP280;20110;53.120;5.786;2023-09-07T00:44:15;102130.66;;;23.97
34125;BMP280;20110;53.120;5.786;2023-09-07T00:46:42;102146.47;;;24.10
34125;BMP280;20110;53.120;5.786;2023-09-07T00:49:11;102155.09;;;24.18
34125;BMP280;20110;53.120;5.786;2023-09-07T00:51:37;102153.84;;;24.19
34125;BMP280;20110;53.120;5.786;2023-09-07T00:54:03;102145.03;;;24.09
34125;BMP280;20110;53.120;5.786;2023-09-07T00:56:30;102158.72;;;24.21
34125;BMP280;20110;53.120;5.786;2023-09-07T00:58:57;102145.19;;;24.11
34125;BMP280;20110;53.120;5.786;2023-09-07T01:01:26;102097.59;;;23.79
34125;BMP280;20110;53.120;5.786;2023-09-07T01:03:52;102142.88;;;24.08
34125;BMP280;20110;53.120;5.786;2023-09-07T01:06:26;102152.47;;;24.09
34125;BMP280;20110;53.120;5.786;2023-09-07T01:08:57;102152.47;;;24.09
34125;BMP280;20110;53.120;5.786;2023-09-07T01:11:25;102124.38;;;23.95
34125;BMP280;20110;53.120;5.786;2023-09-07T01:13:52;102154.31;;;24.06
34125;BMP280;20110;53.120;5.786;2023-09-07T01:16:20;102151.34;;;24.02
34125;BMP280;20110;53.120;5.786;2023-09-07T01:18:47;102039.22;;;23.19
34125;BMP280;20110;53.120;5.786;2023-09-07T01:21:14;102104.50;;;23.61
34125;BMP280;20110;53.120;5.786;2023-09-07T01:23:44;102047.81;;;23.05
34125;BMP280;20110;53.120;5.786;2023-09-07T01:26:11;102147.03;;;23.68
34125;BMP280;20110;53.120;5.786;2023-09-07T01:28:38;102123.78;;;23.46
34125;BMP280;20110;53.120;5.786;2023-09-07T01:31:04;102094.59;;;23.16
34125;BMP280;20110;53.120;5.786;2023-09-07T01:33:31;102147.63;;;23.47
34125;BMP280;20110;53.120;5.786;2023-09-07T01:35:57;102145.91;;;23.42
34125;BMP280;20110;53.120;5.786;2023-09-07T01:38:23;102142.66;;;23.34
34125;BMP280;20110;53.120;5.786;2023-09-07T01:40:49;102126.66;;;23.19
34125;BMP280;20110;53.120;5.786;2023-09-07T01:43:15;102143.50;;;23.27
34125;BMP280;20110;53.120;5.786;2023-09-07T01:45:40;102134.22;;;23.21
34125;BMP280;20110;53.120;5.786;2023-09-07T01:48:10;102096.31;;;22.92
34125;BMP280;20110;53.120;5.786;2023-09-07T01:50:37;102088.59;;;22.88
34125;BMP280;20110;53.120;5.786;2023-09-07T01:53:03;102137.38;;;23.17
34125;BMP280;20110;53.120;5.786;2023-09-07T01:55:31;102123.41;;;23.11
34125;BMP280;20110;53.120;5.786;2023-09-07T01:57:57;102123.81;;;23.08
34125;BMP280;20110;53.120;5.786;2023-09-07T02:00:23;102132.81;;;23.10
34125;BMP280;20110;53.120;5.786;2023-09-07T02:02:48;102113.69;;;22.89
34125;BMP280;20110;53.120;5.786;2023-09-07T02:05:14;102129.09;;;22.96
34125;BMP280;20110;53.120;5.786;2023-09-07T02:07:40;102090.41;;;22.57
34125;BMP280;20110;53.120;5.786;2023-09-07T02:10:07;102096.81;;;22.52
34125;BMP280;20110;53.120;5.786;2023-09-07T02:12:33;102084.81;;;22.36
34125;BMP280;20110;53.120;5.786;2023-09-07T02:15:02;102148.59;;;22.75
34125;BMP280;20110;53.120;5.786;2023-09-07T02:17:29;102116.19;;;22.48
34125;BMP280;20110;53.120;5.786;2023-09-07T02:19:56;102131.72;;;22.48
34125;BMP280;20110;53.120;5.786;2023-09-07T02:22:22;102147.81;;;22.55
34125;BMP280;20110;53.120;5.786;2023-09-07T02:24:48;102138.84;;;22.53
34125;BMP280;20110;53.120;5.786;2023-09-07T02:27:14;102129.59;;;22.46
34125;BMP280;20110;53.120;5.786;2023-09-07T02:29:40;102142.13;;;22.51
34125;BMP280;20110;53.120;5.786;2023-09-07T02:32:06;102140.84;;;22.52
34125;BMP280;20110;53.120;5.786;2023-09-07T02:34:32;102096.44;;;22.19
34125;BMP280;20110;53.120;5.786;2023-09-07T02:37:03;102140.69;;;22.50
34125;BMP280;20110;53.120;5.786;2023-09-07T02:39:29;102118.41;;;22.33
34125;BMP280;20110;53.120;5.786;2023-09-07T02:41:55;102127.13;;;22.41
34125;BMP280;20110;53.120;5.786;2023-09-07T02:44:20;102126.13;;;22.36
34125;BMP280;20110;53.120;5.786;2023-09-07T02:46:46;102140.41;;;22.46
34125;BMP280;20110;53.120;5.786;2023-09-07T02:49:14;102074.81;;;21.92
34125;BMP280;20110;53.120;5.786;2023-09-07T02:51:41;102133.09;;;22.39
34125;BMP280;20110;53.120;5.786;2023-09-07T02:54:07;102150.38;;;22.44
34125;BMP280;20110;53.120;5.786;2023-09-07T02:56:32;102107.19;;;22.09
34125;BMP280;20110;53.120;5.786;2023-09-07T02:58:58;102140.63;;;22.31
34125;BMP280;20110;53.120;5.786;2023-09-07T03:01:25;102133.78;;;22.30
34125;BMP280;20110;53.120;5.786;2023-09-07T03:03:50;102131.66;;;22.29
34125;BMP280;20110;53.120;5.786;2023-09-07T03:06:17;102136.63;;;22.32
34125;BMP280;20110;53.120;5.786;2023-09-07T03:08:43;102155.47;;;22.40
34125;BMP280;20110;53.120;5.786;2023-09-07T03:11:09;102144.19;;;22.34
34125;BMP280;20110;53.120;5.786;2023-09-07T03:13:35;102154.22;;;22.41
34125;BMP280;20110;53.120;5.786;2023-09-07T03:16:03;102093.63;;;22.00
34125;BMP280;20110;53.120;5.786;2023-09-07T03:18:30;102154.22;;;22.41
34125;BMP280;20110;53.120;5.786;2023-09-07T03:21:01;102145.78;;;22.37
34125;BMP280;20110;53.120;5.786;2023-09-07T03:23:33;102151.94;;;22.37
34125;BMP280;20110;53.120;5.786;2023-09-07T03:25:59;102127.78;;;22.22
34125;BMP280;20110;53.120;5.786;2023-09-07T03:28:26;102127.06;;;22.22
34125;BMP280;20110;53.120;5.786;2023-09-07T03:30:55;102148.72;;;22.31
34125;BMP280;20110;53.120;5.786;2023-09-07T03:33:22;102128.84;;;22.09
34125;BMP280;20110;53.120;5.786;2023-09-07T03:35:48;102147.16;;;22.28
34125;BMP280;20110;53.120;5.786;2023-09-07T03:38:14;102141.63;;;22.26
34125;BMP280;20110;53.120;5.786;2023-09-07T03:40:41;102109.00;;;21.97
34125;BMP280;20110;53.120;5.786;2023-09-07T03:43:07;102146.31;;;22.26
34125;BMP280;20110;53.120;5.786;2023-09-07T03:45:33;102116.13;;;22.02
34125;BMP280;20110;53.120;5.786;2023-09-07T03:47:58;102138.59;;;22.22
34125;BMP280;20110;53.120;5.786;2023-09-07T03:50:24;102120.28;;;22.03
34125;BMP280;20110;53.120;5.786;2023-09-07T03:52:50;102131.44;;;22.17
34125;BMP280;20110;53.120;5.786;2023-09-07T03:55:16;102127.44;;;22.08
34125;BMP280;20110;53.120;5.786;2023-09-07T03:57:42;102131.84;;;22.13
34125;BMP280;20110;53.120;5.786;2023-09-07T04:00:09;102130.59;;;22.14
34125;BMP280;20110;53.120;5.786;2023-09-07T04:02:35;102127.19;;;22.14
34125;BMP280;20110;53.120;5.786;2023-09-07T04:05:01;102103.19;;;22.01
34125;BMP280;20110;53.120;5.786;2023-09-07T04:07:33;102031.16;;;21.42
34125;BMP280;20110;53.120;5.786;2023-09-07T04:09:58;102125.19;;;22.14
34125;BMP280;20110;53.120;5.786;2023-09-07T04:12:25;102097.00;;;21.91
34125;BMP280;20110;53.120;5.786;2023-09-07T04:14:51;102031.28;;;21.44
34125;BMP280;20110;53.120;5.786;2023-09-07T04:17:17;102084.31;;;21.84
34125;BMP280;20110;53.120;5.786;2023-09-07T04:19:43;101996.03;;;21.25
34125;BMP280;20110;53.120;5.786;2023-09-07T04:22:10;102096.63;;;21.94
34125;BMP280;20110;53.120;5.786;2023-09-07T04:24:36;102063.19;;;21.72
34125;BMP280;20110;53.120;5.786;2023-09-07T04:27:04;102112.91;;;22.04
34125;BMP280;20110;53.120;5.786;2023-09-07T04:29:30;102079.63;;;21.84
34125;BMP280;20110;53.120;5.786;2023-09-07T04:31:56;102088.44;;;21.85
34125;BMP280;20110;53.120;5.786;2023-09-07T04:34:23;102056.44;;;21.64
34125;BMP280;20110;53.120;5.786;2023-09-07T04:36:50;102122.66;;;21.99
34125;BMP280;20110;53.120;5.786;2023-09-07T04:39:20;101962.81;;;20.88
34125;BMP280;20110;53.120;5.786;2023-09-07T04:41:47;102025.91;;;21.27
34125;BMP280;20110;53.120;5.786;2023-09-07T04:44:15;102006.47;;;21.11
34125;BMP280;20110;53.120;5.786;2023-09-07T04:46:41;102045.22;;;21.41
34125;BMP280;20110;53.120;5.786;2023-09-07T04:49:08;102071.06;;;21.51
34125;BMP280;20110;53.120;5.786;2023-09-07T04:51:34;102142.09;;;22.05
34125;BMP280;20110;53.120;5.786;2023-09-07T04:54:10;101994.88;;;21.01
34125;BMP280;20110;53.120;5.786;2023-09-07T04:56:47;102034.97;;;21.39
34125;BMP280;20110;53.120;5.786;2023-09-07T04:59:26;102104.06;;;22.03
34125;BMP280;20110;53.120;5.786;2023-09-07T05:02:06;102087.78;;;21.94
34125;BMP280;20110;53.120;5.786;2023-09-07T05:04:41;102058.28;;;21.88
34125;BMP280;20110;53.120;5.786;2023-09-07T05:07:23;102123.56;;;22.38
34125;BMP280;20110;53.120;5.786;2023-09-07T05:10:03;102130.88;;;22.55
34125;BMP280;20110;53.120;5.786;2023-09-07T05:12:36;102158.28;;;22.69
34125;BMP280;20110;53.120;5.786;2023-09-07T05:15:11;102153.72;;;22.71
34125;BMP280;20110;53.120;5.786;2023-09-07T05:17:41;101949.50;;;21.17
34125;BMP280;20110;53.120;5.786;2023-09-07T05:20:13;101980.22;;;21.39
34125;BMP280;20110;53.120;5.786;2023-09-07T05:22:43;102106.00;;;22.30
34125;BMP280;20110;53.120;5.786;2023-09-07T05:25:24;102050.06;;;21.96
34125;BMP280;20110;53.120;5.786;2023-09-07T05:27:57;102122.03;;;22.54
34125;BMP280;20110;53.120;5.786;2023-09-07T05:30:28;102116.88;;;22.49
34125;BMP280;20110;53.120;5.786;2023-09-07T05:32:56;102166.72;;;22.82
34125;BMP280;20110;53.120;5.786;2023-09-07T05:35:23;102002.81;;;21.60
34125;BMP280;20110;53.120;5.786;2023-09-07T05:37:56;102009.44;;;21.59
34125;BMP280;20110;53.120;5.786;2023-09-07T05:40:29;102035.66;;;21.84
34125;BMP280;20110;53.120;5.786;2023-09-07T05:42:56;102144.88;;;22.61
34125;BMP280;20110;53.120;5.786;2023-09-07T05:45:22;102149.44;;;22.68
34125;BMP280;20110;53.120;5.786;2023-09-07T05:47:47;102147.16;;;22.65
34125;BMP280;20110;53.120;5.786;2023-09-07T05:50:13;102177.25;;;22.88
34125;BMP280;20110;53.120;5.786;2023-09-07T05:52:39;102147.03;;;22.72
34125;BMP280;20110;53.120;5.786;2023-09-07T05:55:06;102183.13;;;22.94
34125;BMP280;20110;53.120;5.786;2023-09-07T05:57:32;102131.03;;;22.57
34125;BMP280;20110;53.120;5.786;2023-09-07T05:59:58;102175.72;;;22.94
34125;BMP280;20110;53.120;5.786;2023-09-07T06:02:26;102073.50;;;22.20
34125;BMP280;20110;53.120;5.786;2023-09-07T06:04:59;102186.00;;;23.05
34125;BMP280;20110;53.120;5.786;2023-09-07T06:07:31;102171.59;;;22.93
34125;BMP280;20110;53.120;5.786;2023-09-07T06:09:57;102198.84;;;23.15
34125;BMP280;20110;53.120;5.786;2023-09-07T06:12:26;102134.22;;;22.73
34125;BMP280;20110;53.120;5.786;2023-09-07T06:14:54;102134.34;;;22.75
34125;BMP280;20110;53.120;5.786;2023-09-07T06:17:21;102156.19;;;22.96
34125;BMP280;20110;53.120;5.786;2023-09-07T06:19:47;102169.19;;;23.17
34125;BMP280;20110;53.120;5.786;2023-09-07T06:22:16;102108.69;;;22.85
34125;BMP280;20110;53.120;5.786;2023-09-07T06:24:45;102089.44;;;22.81
34125;BMP280;20110;53.120;5.786;2023-09-07T06:27:12;102139.09;;;23.22
34125;BMP280;20110;53.120;5.786;2023-09-07T06:29:39;102079.22;;;22.89
34125;BMP280;20110;53.120;5.786;2023-09-07T06:32:06;102195.66;;;23.85
34125;BMP280;20110;53.120;5.786;2023-09-07T06:34:34;102141.91;;;23.53
34125;BMP280;20110;53.120;5.786;2023-09-07T06:37:05;102199.16;;;24.07
34125;BMP280;20110;53.120;5.786;2023-09-07T06:39:50;102124.75;;;23.70
34125;BMP280;20110;53.120;5.786;2023-09-07T06:42:26;102066.72;;;23.44
34125;BMP280;20110;53.120;5.786;2023-09-07T06:44:56;102054.59;;;23.55
34125;BMP280;20110;53.120;5.786;2023-09-07T06:47:40;102177.69;;;24.52
34125;BMP280;20110;53.120;5.786;2023-09-07T06:50:22;102169.03;;;24.65
34125;BMP280;20110;53.120;5.786;2023-09-07T06:52:52;102145.56;;;24.69
34125;BMP280;20110;53.120;5.786;2023-09-07T06:55:36;102152.84;;;24.88
34125;BMP280;20110;53.120;5.786;2023-09-07T06:58:11;102076.16;;;24.57
34125;BMP280;20110;53.120;5.786;2023-09-07T07:00:52;102171.75;;;25.40
34125;BMP280;20110;53.120;5.786;2023-09-07T07:03:36;102167.34;;;25.47
34125;BMP280;20110;53.120;5.786;2023-09-07T07:06:23;102060.78;;;24.83
34125;BMP280;20110;53.120;5.786;2023-09-07T07:08:52;102128.44;;;25.44
34125;BMP280;20110;53.120;5.786;2023-09-07T07:11:25;102192.84;;;26.09
34125;BMP280;20110;53.120;5.786;2023-09-07T07:13:51;102204.22;;;26.29
34125;BMP280;20110;53.120;5.786;2023-09-07T07:16:17;102196.88;;;26.32
34125;BMP280;20110;53.120;5.786;2023-09-07T07:18:43;102189.06;;;26.26
34125;BMP280;20110;53.120;5.786;2023-09-07T07:21:09;102213.44;;;26.47
34125;BMP280;20110;53.120;5.786;2023-09-07T07:23:35;102201.47;;;26.41
34125;BMP280;20110;53.120;5.786;2023-09-07T07:26:02;102223.03;;;26.60
34125;BMP280;20110;53.120;5.786;2023-09-07T07:28:27;102189.63;;;26.48
34125;BMP280;20110;53.120;5.786;2023-09-07T07:30:53;102201.66;;;26.68
34125;BMP280;20110;53.120;5.786;2023-09-07T07:33:20;102225.00;;;26.96
34125;BMP280;20110;53.120;5.786;2023-09-07T07:35:45;102206.75;;;26.99
34125;BMP280;20110;53.120;5.786;2023-09-07T07:38:13;102214.25;;;27.24
34125;BMP280;20110;53.120;5.786;2023-09-07T07:40:40;102211.09;;;27.29
34125;BMP280;20110;53.120;5.786;2023-09-07T07:43:06;102212.19;;;27.49
34125;BMP280;20110;53.120;5.786;2023-09-07T07:45:32;102182.06;;;27.34
34125;BMP280;20110;53.120;5.786;2023-09-07T07:48:02;102222.13;;;27.70
34125;BMP280;20110;53.120;5.786;2023-09-07T07:50:31;102216.50;;;27.80
34125;BMP280;20110;53.120;5.786;2023-09-07T07:52:57;102214.97;;;27.90
34125;BMP280;20110;53.120;5.786;2023-09-07T07:55:23;102219.31;;;27.95
34125;BMP280;20110;53.120;5.786;2023-09-07T07:57:49;102176.44;;;27.71
34125;BMP280;20110;53.120;5.786;2023-09-07T08:00:15;102223.66;;;28.14
34125;BMP280;20110;53.120;5.786;2023-09-07T08:02:40;102224.88;;;28.25
34125;BMP280;20110;53.120;5.786;2023-09-07T08:05:07;102197.78;;;28.15
34125;BMP280;20110;53.120;5.786;2023-09-07T08:07:32;102208.97;;;28.35
34125;BMP280;20110;53.120;5.786;2023-09-07T08:09:58;102212.50;;;28.51
34125;BMP280;20110;53.120;5.786;2023-09-07T08:12:24;102158.69;;;28.26
34125;BMP280;20110;53.120;5.786;2023-09-07T08:14:50;102200.09;;;28.64
34125;BMP280;20110;53.120;5.786;2023-09-07T08:17:16;102202.69;;;28.75
34125;BMP280;20110;53.120;5.786;2023-09-07T08:19:41;102206.16;;;28.91
34125;BMP280;20110;53.120;5.786;2023-09-07T08:22:09;102208.47;;;28.97
34125;BMP280;20110;53.120;5.786;2023-09-07T08:24:35;102197.78;;;29.03
34125;BMP280;20110;53.120;5.786;2023-09-07T08:27:01;102182.53;;;28.98
34125;BMP280;20110;53.120;5.786;2023-09-07T08:29:27;102165.69;;;29.03
34125;BMP280;20110;53.120;5.786;2023-09-07T08:31:53;102194.91;;;29.30
34125;BMP280;20110;53.120;5.786;2023-09-07T08:34:21;102177.09;;;29.29
34125;BMP280;20110;53.120;5.786;2023-09-07T08:36:48;102178.84;;;29.38
34125;BMP280;20110;53.120;5.786;2023-09-07T08:39:16;102184.56;;;29.60
34125;BMP280;20110;53.120;5.786;2023-09-07T08:41:45;102201.59;;;29.74
34125;BMP280;20110;53.120;5.786;2023-09-07T08:44:12;102197.94;;;29.85
34125;BMP280;20110;53.120;5.786;2023-09-07T08:46:41;102186.38;;;29.87
34125;BMP280;20110;53.120;5.786;2023-09-07T08:49:09;102170.41;;;29.81
34125;BMP280;20110;53.120;5.786;2023-09-07T08:51:38;102186.56;;;30.09
34125;BMP280;20110;53.120;5.786;2023-09-07T08:54:05;102142.56;;;29.87
34125;BMP280;20110;53.120;5.786;2023-09-07T08:56:33;102150.53;;;29.98
34125;BMP280;20110;53.120;5.786;2023-09-07T08:58:59;102170.09;;;30.24
34125;BMP280;20110;53.120;5.786;2023-09-07T09:01:25;102179.00;;;30.42
34125;BMP280;20110;53.120;5.786;2023-09-07T09:03:51;102169.41;;;30.43
34125;BMP280;20110;53.120;5.786;2023-09-07T09:06:20;102171.97;;;30.55
34125;BMP280;20110;53.120;5.786;2023-09-07T09:08:49;102176.56;;;30.68
34125;BMP280;20110;53.120;5.786;2023-09-07T09:11:16;102135.50;;;30.53
34125;BMP280;20110;53.120;5.786;2023-09-07T09:13:44;102178.06;;;30.91
34125;BMP280;20110;53.120;5.786;2023-09-07T09:16:11;102142.88;;;30.85
34125;BMP280;20110;53.120;5.786;2023-09-07T09:18:47;102179.78;;;31.20
34125;BMP280;20110;53.120;5.786;2023-09-07T09:21:14;102140.78;;;31.03
34125;BMP280;20110;53.120;5.786;2023-09-07T09:23:43;102170.63;;;31.33
34125;BMP280;20110;53.120;5.786;2023-09-07T09:26:09;102152.53;;;31.26
34125;BMP280;20110;53.120;5.786;2023-09-07T09:28:35;102170.47;;;31.48
34125;BMP280;20110;53.120;5.786;2023-09-07T09:31:02;102167.94;;;31.55
34125;BMP280;20110;53.120;5.786;2023-09-07T09:33:32;102161.94;;;31.60
34125;BMP280;20110;53.120;5.786;2023-09-07T09:35:59;102173.72;;;31.84
34125;BMP280;20110;53.120;5.786;2023-09-07T09:38:25;102152.44;;;31.85
34125;BMP280;20110;53.120;5.786;2023-09-07T09:40:52;102160.41;;;31.98
34125;BMP280;20110;53.120;5.786;2023-09-07T09:43:20;102116.56;;;31.81
34125;BMP280;20110;53.120;5.786;2023-09-07T09:45:49;102137.59;;;32.16
34125;BMP280;20110;53.120;5.786;2023-09-07T09:48:19;102166.13;;;32.76
34125;BMP280;20110;53.120;5.786;2023-09-07T09:50:50;102167.31;;;34.07
34125;BMP280;20110;53.120;5.786;2023-09-07T09:53:17;102163.00;;;35.50
34125;BMP280;20110;53.120;5.786;2023-09-07T09:55:49;102154.63;;;36.50
34125;BMP280;20110;53.120;5.786;2023-09-07T09:58:16;102141.41;;;37.22
34125;BMP280;20110;53.120;5.786;2023-09-07T10:00:51;102163.31;;;38.10
34125;BMP280;20110;53.120;5.786;2023-09-07T10:03:32;102173.09;;;38.68
34125;BMP280;20110;53.120;5.786;2023-09-07T10:06:19;102168.22;;;39.17
34125;BMP280;20110;53.120;5.786;2023-09-07T10:09:03;102169.44;;;39.70
34125;BMP280;20110;53.120;5.786;2023-09-07T10:11:33;102160.16;;;40.14
34125;BMP280;20110;53.120;5.786;2023-09-07T10:14:01;102153.06;;;40.31
34125;BMP280;20110;53.120;5.786;2023-09-07T10:16:51;102155.06;;;40.43
34125;BMP280;20110;53.120;5.786;2023-09-07T10:19:22;102146.63;;;40.53
34125;BMP280;20110;53.120;5.786;2023-09-07T10:21:49;102147.09;;;40.77
34125;BMP280;20110;53.120;5.786;2023-09-07T10:24:31;102147.56;;;41.00
34125;BMP280;20110;53.120;5.786;2023-09-07T10:27:06;102161.75;;;41.37
34125;BMP280;20110;53.120;5.786;2023-09-07T10:29:50;102161.44;;;41.63
34125;BMP280;20110;53.120;5.786;2023-09-07T10:32:19;102142.22;;;41.90
34125;BMP280;20110;53.120;5.786;2023-09-07T10:34:45;102129.28;;;42.13
34125;BMP280;20110;53.120;5.786;2023-09-07T10:37:14;102142.75;;;42.41
34125;BMP280;20110;53.120;5.786;2023-09-07T10:39:44;102149.56;;;42.52
34125;BMP280;20110;53.120;5.786;2023-09-07T10:42:25;102145.16;;;42.63
34125;BMP280;20110;53.120;5.786;2023-09-07T10:44:52;102109.38;;;42.70
34125;BMP280;20110;53.120;5.786;2023-09-07T10:47:18;102151.84;;;43.15
34125;BMP280;20110;53.120;5.786;2023-09-07T10:49:46;102157.84;;;43.28
34125;BMP280;20110;53.120;5.786;2023-09-07T10:52:12;102116.69;;;43.24
34125;BMP280;20110;53.120;5.786;2023-09-07T10:54:38;102149.97;;;43.67
34125;BMP280;20110;53.120;5.786;2023-09-07T10:57:14;102127.19;;;43.54
34125;BMP280;20110;53.120;5.786;2023-09-07T10:59:46;102139.94;;;43.76
34125;BMP280;20110;53.120;5.786;2023-09-07T11:02:12;102122.03;;;43.65
34125;BMP280;20110;53.120;5.786;2023-09-07T11:04:37;102115.06;;;43.64
34125;BMP280;20110;53.120;5.786;2023-09-07T11:07:04;102111.50;;;43.68
34125;BMP280;20110;53.120;5.786;2023-09-07T11:09:30;102086.22;;;43.72
34125;BMP280;20110;53.120;5.786;2023-09-07T11:11:57;102118.41;;;43.99
34125;BMP280;20110;53.120;5.786;2023-09-07T11:14:29;102126.94;;;44.22
34125;BMP280;20110;53.120;5.786;2023-09-07T11:16:56;102102.38;;;44.22
34125;BMP280;20110;53.120;5.786;2023-09-07T11:19:22;102102.97;;;44.27
34125;BMP280;20110;53.120;5.786;2023-09-07T11:21:48;102112.06;;;44.52
34125;BMP280;20110;53.120;5.786;2023-09-07T11:24:14;102087.31;;;44.36
34125;BMP280;20110;53.120;5.786;2023-09-07T11:26:44;102089.63;;;44.54
34125;BMP280;20110;53.120;5.786;2023-09-07T11:29:14;102119.06;;;44.78
34125;BMP280;20110;53.120;5.786;2023-09-07T11:31:41;102105.53;;;44.84
34125;BMP280;20110;53.120;5.786;2023-09-07T11:34:14;102095.38;;;44.73
34125;BMP280;20110;53.120;5.786;2023-09-07T11:36:42;102070.09;;;44.50
34125;BMP280;20110;53.120;5.786;2023-09-07T11:39:08;102043.06;;;44.16
34125;BMP280;20110;53.120;5.786;2023-09-07T11:41:44;102037.84;;;44.26
34125;BMP280;20110;53.120;5.786;2023-09-07T11:44:11;102092.53;;;44.97
34125;BMP280;20110;53.120;5.786;2023-09-07T11:46:38;102075.59;;;44.79
34125;BMP280;20110;53.120;5.786;2023-09-07T11:49:05;102031.69;;;44.47
34125;BMP280;20110;53.120;5.786;2023-09-07T11:51:32;102051.34;;;44.69
34125;BMP280;20110;53.120;5.786;2023-09-07T11:53:58;102096.19;;;44.92
34125;BMP280;20110;53.120;5.786;2023-09-07T11:56:24;102099.22;;;45.08
34125;BMP280;20110;53.120;5.786;2023-09-07T11:58:50;102083.94;;;45.03
34125;BMP280;20110;53.120;5.786;2023-09-07T12:01:16;102082.69;;;45.21
34125;BMP280;20110;53.120;5.786;2023-09-07T12:03:45;102058.31;;;44.93
34125;BMP280;20110;53.120;5.786;2023-09-07T12:06:11;102057.84;;;44.86
34125;BMP280;20110;53.120;5.786;2023-09-07T12:08:37;102074.72;;;45.07
34125;BMP280;20110;53.120;5.786;2023-09-07T12:11:04;102053.78;;;45.04
34125;BMP280;20110;53.120;5.786;2023-09-07T12:13:30;102013.91;;;44.79
34125;BMP280;20110;53.120;5.786;2023-09-07T12:15:56;102044.75;;;45.01
34125;BMP280;20110;53.120;5.786;2023-09-07T12:18:22;102071.94;;;45.28
34125;BMP280;20110;53.120;5.786;2023-09-07T12:20:49;102040.81;;;45.15
34125;BMP280;20110;53.120;5.786;2023-09-07T12:23:15;102058.41;;;45.34
34125;BMP280;20110;53.120;5.786;2023-09-07T12:25:40;102033.56;;;45.22
34125;BMP280;20110;53.120;5.786;2023-09-07T12:28:06;102020.81;;;45.04
34125;BMP280;20110;53.120;5.786;2023-09-07T12:30:33;102054.19;;;45.35
34125;BMP280;20110;53.120;5.786;2023-09-07T12:32:59;102032.88;;;45.22
34125;BMP280;20110;53.120;5.786;2023-09-07T12:35:24;102051.22;;;45.19
34125;BMP280;20110;53.120;5.786;2023-09-07T12:37:50;102051.81;;;45.21
34125;BMP280;20110;53.120;5.786;2023-09-07T12:40:16;102015.78;;;45.09
34125;BMP280;20110;53.120;5.786;2023-09-07T12:42:43;102050.41;;;45.43
34125;BMP280;20110;53.120;5.786;2023-09-07T12:45:10;102038.84;;;45.32
34125;BMP280;20110;53.120;5.786;2023-09-07T12:47:38;102048.56;;;45.35
34125;BMP280;20110;53.120;5.786;2023-09-07T12:50:04;102046.34;;;45.17
34125;BMP280;20110;53.120;5.786;2023-09-07T12:52:31;102051.91;;;45.19
34125;BMP280;20110;53.120;5.786;2023-09-07T12:54:57;102051.91;;;45.19
34125;BMP280;20110;53.120;5.786;2023-09-07T12:57:23;102013.28;;;44.99
34125;BMP280;20110;53.120;5.786;2023-09-07T12:59:49;102017.63;;;44.94
34125;BMP280;20110;53.120;5.786;2023-09-07T13:02:15;102039.00;;;45.05
34125;BMP280;20110;53.120;5.786;2023-09-07T13:04:40;102039.00;;;45.05
34125;BMP280;20110;53.120;5.786;2023-09-07T13:07:06;102036.47;;;44.97
34125;BMP280;20110;53.120;5.786;2023-09-07T13:09:32;102032.91;;;44.99
34125;BMP280;20110;53.120;5.786;2023-09-07T13:11:58;102030.84;;;44.97
34125;BMP280;20110;53.120;5.786;2023-09-07T13:14:24;102020.78;;;44.59
34125;BMP280;20110;53.120;5.786;2023-09-07T13:16:49;102031.97;;;44.37
34125;BMP280;20110;53.120;5.786;2023-09-07T13:19:16;101944.13;;;43.47
34125;BMP280;20110;53.120;5.786;2023-09-07T13:21:42;102027.25;;;43.78
34125;BMP280;20110;53.120;5.786;2023-09-07T13:24:08;102019.75;;;43.43
34125;BMP280;20110;53.120;5.786;2023-09-07T13:26:34;101962.72;;;42.69
34125;BMP280;20110;53.120;5.786;2023-09-07T13:28:59;101987.25;;;42.32
34125;BMP280;20110;53.120;5.786;2023-09-07T13:31:25;101996.84;;;42.04
34125;BMP280;20110;53.120;5.786;2023-09-07T13:33:51;101986.94;;;41.72
34125;BMP280;20110;53.120;5.786;2023-09-07T13:36:17;102003.38;;;41.47
34125;BMP280;20110;53.120;5.786;2023-09-07T13:38:43;101999.56;;;41.22
34125;BMP280;20110;53.120;5.786;2023-09-07T13:41:09;101964.56;;;40.80
34125;BMP280;20110;53.120;5.786;2023-09-07T13:43:35;101982.69;;;40.81
34125;BMP280;20110;53.120;5.786;2023-09-07T13:46:01;101999.97;;;40.90
34125;BMP280;20110;53.120;5.786;2023-09-07T13:48:27;101954.44;;;40.55
34125;BMP280;20110;53.120;5.786;2023-09-07T13:50:53;101989.19;;;40.62
34125;BMP280;20110;53.120;5.786;2023-09-07T13:53:18;101967.09;;;40.46
34125;BMP280;20110;53.120;5.786;2023-09-07T13:55:44;101987.94;;;40.49
34125;BMP280;20110;53.120;5.786;2023-09-07T13:58:12;101984.03;;;40.26
34125;BMP280;20110;53.120;5.786;2023-09-07T14:00:37;101948.88;;;39.88